Terminal Aerodrome Forecast
Issued by NWS Charleston, WV

Current Version | Previous Version | Text Only | Print | Product List | Glossary Off
Versions: 1 2 3 4 5 6 7 8 9 10 11 12 13 14 15 16 17 18 19 20 21 22 23

000
FTUS41 KRLX 151100
TAFPKB
TAF
KPKB 151122Z 1512/1612 31012G21KT 4SM -SHRASN OVC015
      TEMPO 1512/1514 OVC007
     FM151400 31011G19KT 4SM -SHSN OVC012
     FM151600 31011G18KT P6SM OVC015
     FM151900 31010G16KT P6SM BKN025
     FM152200 31011G16KT P6SM SCT040
     FM160300 33005KT P6SM FEW040=

USA.gov is the U.S. government's official web portal to all federal, state and local government web resources and services.